createdAt,value
2019-05-05T00:03:55.021Z,5.40
2019-05-05T00:09:00.973Z,5.37
2019-05-05T00:14:26.093Z,5.30
2019-05-05T00:19:33.396Z,5.34
2019-05-05T00:24:39.952Z,5.29
2019-05-05T00:29:45.906Z,5.11
2019-05-05T00:34:52.539Z,5.17
2019-05-05T00:39:58.724Z,5.01
2019-05-05T00:45:06.631Z,5.08
2019-05-05T00:50:14.652Z,5.10
2019-05-05T00:55:20.626Z,4.85
2019-05-05T01:00:37.650Z,4.73
2019-05-05T01:05:47.824Z,4.63
2019-05-05T01:10:54.790Z,4.55
2019-05-05T01:16:01.102Z,4.54
2019-05-05T01:21:07.478Z,4.57
2019-05-05T01:26:14.376Z,4.76
2019-05-05T01:31:21.486Z,4.81
2019-05-05T01:36:27.851Z,4.78
2019-05-05T01:41:35.464Z,4.73
2019-05-05T01:46:40.482Z,4.62
2019-05-05T01:51:46.376Z,4.50
2019-05-05T01:56:52.652Z,4.36
2019-05-05T02:01:59.650Z,4.18
2019-05-05T02:07:06.331Z,4.02
2019-05-05T02:12:12.306Z,3.75
2019-05-05T02:17:18.274Z,3.59
2019-05-05T02:22:25.281Z,3.49
2019-05-05T02:27:34.226Z,3.46
2019-05-05T02:32:47.861Z,3.39
2019-05-05T02:37:55.774Z,3.41
2019-05-05T02:43:01.582Z,3.36
2019-05-05T02:48:10.140Z,3.41
2019-05-05T02:53:16.084Z,3.17
2019-05-05T02:58:24.465Z,3.11
2019-05-05T03:03:31.777Z,3.10
2019-05-05T03:08:39.513Z,3.04
2019-05-05T03:13:48.427Z,3.01
2019-05-05T03:18:55.018Z,2.99
2019-05-05T03:24:03.720Z,3.03
2019-05-05T03:29:10.519Z,2.94
2019-05-05T03:34:17.013Z,3.07
2019-05-05T03:39:30.264Z,3.53
2019-05-05T03:44:41.462Z,3.66
2019-05-05T03:49:47.744Z,3.89
2019-05-05T03:54:54.293Z,4.13
2019-05-05T04:00:00.816Z,4.29
2019-05-05T04:05:09.004Z,4.33
2019-05-05T04:10:15.157Z,4.34
2019-05-05T04:15:24.305Z,4.40
2019-05-05T04:20:30.402Z,4.49
2019-05-05T04:25:36.411Z,5.48
2019-05-05T04:30:44.302Z,6.73
2019-05-05T04:35:50.224Z,7.17
2019-05-05T04:40:56.577Z,7.27
2019-05-05T04:46:04.521Z,7.57
2019-05-05T04:51:26.918Z,6.74
2019-05-05T04:56:34.278Z,6.23
2019-05-05T05:01:40.729Z,5.82
2019-05-05T05:06:48.644Z,5.74
2019-05-05T05:11:54.791Z,5.72
2019-05-05T05:17:03.504Z,5.52
2019-05-05T05:22:09.744Z,5.41
2019-05-05T05:27:16.272Z,5.65
2019-05-05T05:32:24.537Z,6.00
2019-05-05T05:37:29.464Z,7.33
2019-05-05T05:42:35.393Z,7.96
2019-05-05T05:47:56.268Z,8.20
2019-05-05T05:53:04.578Z,8.85
2019-05-05T05:58:10.370Z,9.28
2019-05-05T06:03:16.339Z,9.41
2019-05-05T06:08:24.136Z,9.31
2019-05-05T06:13:30.230Z,9.66
2019-05-05T06:18:36.393Z,10.11
2019-05-05T06:23:43.775Z,9.41
2019-05-05T06:28:50.088Z,8.95
2019-05-05T06:33:56.049Z,9.14
2019-05-05T06:39:04.460Z,8.91
2019-05-05T06:44:14.093Z,8.88
2019-05-05T06:49:20.143Z,9.00
2019-05-05T06:54:26.288Z,8.85
2019-05-05T06:59:32.358Z,8.61
2019-05-05T07:04:38.438Z,8.85
2019-05-05T07:09:44.557Z,8.72
2019-05-05T07:14:50.481Z,8.68
2019-05-05T07:19:56.930Z,8.75
2019-05-05T07:25:04.712Z,9.12
2019-05-05T07:30:14.029Z,9.06
2019-05-05T07:35:21.860Z,8.78
2019-05-05T07:40:28.016Z,8.64
2019-05-05T07:45:34.457Z,8.95
2019-05-05T07:50:40.867Z,9.21
2019-05-05T07:55:47.475Z,9.66
2019-05-05T08:00:54.189Z,10.10
2019-05-05T08:06:00.320Z,9.96
2019-05-05T08:11:06.399Z,10.34
2019-05-05T08:16:30.868Z,10.24
2019-05-05T08:21:37.400Z,9.59
2019-05-05T08:26:54.664Z,9.69
2019-05-05T08:32:04.311Z,10.33
2019-05-05T08:37:10.046Z,9.90
2019-05-05T08:42:16.240Z,9.99
2019-05-05T08:47:24.598Z,10.19
2019-05-05T08:52:30.422Z,10.76
2019-05-05T08:57:38.028Z,10.79
2019-05-05T09:02:44.007Z,10.80
2019-05-05T09:07:50.375Z,10.63
2019-05-05T09:12:56.452Z,10.84
2019-05-05T09:18:04.968Z,11.12
2019-05-05T09:23:11.275Z,11.48
2019-05-05T09:28:23.918Z,11.21
2019-05-05T09:33:30.265Z,10.62
2019-05-05T09:38:36.443Z,10.18
2019-05-05T09:43:44.606Z,10.72
2019-05-05T09:48:50.885Z,10.95
2019-05-05T09:54:10.269Z,10.85
2019-05-05T09:59:04.935Z,11.15
2019-05-05T10:04:14.835Z,11.61
2019-05-05T10:09:21.193Z,11.70
2019-05-05T10:14:27.475Z,11.22
2019-05-05T10:19:33.574Z,11.32
2019-05-05T10:24:50.668Z,11.36
2019-05-05T10:29:57.341Z,11.87
2019-05-05T10:35:04.715Z,11.84
2019-05-05T10:40:12.542Z,11.79
2019-05-05T10:45:24.421Z,11.78
2019-05-05T10:50:30.652Z,12.14
2019-05-05T10:55:36.996Z,12.76
2019-05-05T11:00:51.178Z,12.73
2019-05-05T11:05:57.787Z,12.30
2019-05-05T11:11:04.322Z,12.91
2019-05-05T11:16:10.645Z,12.99
2019-05-05T11:21:16.760Z,12.46
2019-05-05T11:26:24.669Z,12.63
2019-05-05T11:31:30.848Z,12.58
2019-05-05T11:36:39.608Z,12.14
2019-05-05T11:41:45.683Z,12.63
2019-05-05T11:46:52.008Z,13.14
2019-05-05T11:51:58.395Z,13.29
2019-05-05T11:57:04.608Z,13.26
2019-05-05T12:02:10.849Z,13.42
2019-05-05T12:07:16.918Z,13.41
2019-05-05T12:12:23.015Z,13.48
2019-05-05T12:17:35.566Z,13.23
2019-05-05T12:22:41.630Z,12.61
2019-05-05T12:28:01.637Z,12.49
2019-05-05T12:33:08.034Z,12.65
2019-05-05T12:38:14.272Z,12.96
2019-05-05T12:43:20.412Z,13.08
2019-05-05T12:48:28.632Z,12.58
2019-05-05T12:53:34.610Z,12.32
2019-05-05T12:58:40.906Z,11.84
2019-05-05T13:03:46.962Z,11.81
2019-05-05T13:08:53.347Z,12.19
2019-05-05T13:13:59.636Z,12.39
2019-05-05T13:19:07.847Z,12.80
2019-05-05T13:24:27.097Z,13.11
2019-05-05T13:29:33.830Z,13.29
2019-05-05T13:34:41.159Z,13.13
2019-05-05T13:39:48.004Z,13.02
2019-05-05T13:44:56.876Z,13.27
2019-05-05T13:50:04.907Z,13.27
2019-05-05T13:55:13.876Z,13.12
2019-05-05T14:00:21.881Z,12.86
2019-05-05T14:05:28.322Z,12.75
2019-05-05T14:10:34.748Z,12.68
2019-05-05T14:15:40.863Z,12.84
2019-05-05T14:20:47.142Z,13.30
2019-05-05T14:25:54.462Z,13.35
2019-05-05T14:31:02.160Z,13.08
2019-05-05T14:36:11.024Z,12.96
2019-05-05T14:41:16.935Z,12.86
2019-05-05T14:46:23.555Z,12.69
2019-05-05T14:51:29.914Z,13.32
2019-05-05T14:56:36.957Z,13.85
2019-05-05T15:01:44.781Z,13.98
2019-05-05T15:06:55.624Z,14.36
2019-05-05T15:12:14.211Z,14.00
2019-05-05T15:17:19.526Z,13.87
2019-05-05T15:22:25.524Z,13.75
2019-05-05T15:27:31.542Z,13.41
2019-05-05T15:32:37.773Z,13.44
2019-05-05T15:37:44.044Z,13.35
2019-05-05T15:42:50.375Z,13.37
2019-05-05T15:47:56.962Z,13.15
2019-05-05T15:53:03.901Z,13.31
2019-05-05T15:58:10.339Z,13.01
2019-05-05T16:03:16.453Z,13.02
2019-05-05T16:08:22.542Z,12.85
2019-05-05T16:13:28.915Z,12.71
2019-05-05T16:18:36.850Z,12.71
2019-05-05T16:23:55.517Z,13.05
2019-05-05T16:29:01.617Z,13.26
2019-05-05T16:34:07.747Z,13.05
2019-05-05T16:39:13.796Z,13.16
2019-05-05T16:44:23.429Z,13.09
2019-05-05T16:49:29.558Z,12.85
2019-05-05T16:54:37.275Z,12.46
2019-05-05T16:59:44.196Z,12.01
2019-05-05T17:04:50.445Z,11.77
2019-05-05T17:09:56.708Z,11.69
2019-05-05T17:15:08.527Z,11.79
2019-05-05T17:20:25.326Z,11.76
2019-05-05T17:25:34.147Z,11.44
2019-05-05T17:30:40.046Z,11.17
2019-05-05T17:35:46.030Z,10.89
2019-05-05T17:40:51.793Z,10.54
2019-05-05T17:46:00.856Z,10.41
2019-05-05T17:51:11.514Z,10.38
2019-05-05T17:56:17.790Z,10.21
2019-05-05T18:01:24.079Z,9.93
2019-05-05T18:06:47.551Z,9.73
2019-05-05T18:11:55.884Z,9.48
2019-05-05T18:17:04.105Z,9.28
2019-05-05T18:22:08.919Z,9.13
2019-05-05T18:27:15.218Z,8.91
2019-05-05T18:32:21.148Z,8.84
2019-05-05T18:37:27.278Z,8.71
2019-05-05T18:42:33.976Z,8.54
2019-05-05T18:47:40.127Z,8.50
2019-05-05T18:52:47.268Z,8.39
2019-05-05T18:57:54.177Z,8.21
2019-05-05T19:03:01.741Z,8.07
2019-05-05T19:08:11.090Z,7.85
2019-05-05T19:13:18.130Z,7.68
2019-05-05T19:18:24.608Z,7.61
2019-05-05T19:23:30.832Z,7.55
2019-05-05T19:28:44.252Z,7.53
2019-05-05T19:33:44.518Z,7.43
2019-05-05T19:38:50.787Z,7.29
2019-05-05T19:43:56.867Z,7.13
2019-05-05T19:49:19.122Z,6.92
2019-05-05T19:54:25.205Z,6.89
2019-05-05T19:59:31.384Z,6.80
2019-05-05T20:04:37.441Z,6.66
2019-05-05T20:09:43.684Z,6.76
2019-05-05T20:14:49.892Z,6.72
2019-05-05T20:19:55.967Z,6.70
2019-05-05T20:25:04.240Z,6.62
2019-05-05T20:30:09.115Z,6.62
2019-05-05T20:35:19.626Z,6.60
2019-05-05T20:40:27.227Z,6.49
2019-05-05T20:45:34.842Z,6.44
2019-05-05T20:50:41.092Z,6.32
2019-05-05T20:55:46.990Z,6.24
2019-05-05T21:00:54.808Z,6.14
2019-05-05T21:06:00.463Z,6.05
2019-05-05T21:11:07.555Z,5.93
2019-05-05T21:16:14.159Z,5.64
2019-05-05T21:21:22.075Z,5.46
2019-05-05T21:26:45.002Z,5.30
2019-05-05T21:31:50.997Z,5.17
2019-05-05T21:36:56.967Z,5.02
2019-05-05T21:42:04.688Z,4.99
2019-05-05T21:47:10.759Z,4.80
2019-05-05T21:52:21.227Z,4.52
2019-05-05T21:57:36.521Z,4.26
2019-05-05T22:02:44.053Z,4.14
2019-05-05T22:07:49.157Z,4.05
2019-05-05T22:12:55.050Z,3.91
2019-05-05T22:18:01.014Z,3.80
2019-05-05T22:23:06.986Z,3.68
2019-05-05T22:28:12.889Z,3.63
2019-05-05T22:33:19.338Z,3.54
2019-05-05T22:38:25.309Z,3.46
2019-05-05T22:43:31.281Z,3.30
2019-05-05T22:48:37.149Z,3.14
2019-05-05T22:53:43.990Z,3.13
2019-05-05T22:58:50.242Z,3.08
2019-05-05T23:04:09.918Z,3.05
2019-05-05T23:09:15.989Z,2.96
2019-05-05T23:14:30.044Z,3.01
2019-05-05T23:19:39.941Z,3.02
2019-05-05T23:24:47.420Z,2.96
2019-05-05T23:29:52.438Z,2.88
2019-05-05T23:34:58.536Z,2.67
2019-05-05T23:40:06.044Z,2.63
2019-05-05T23:45:11.436Z,2.62
2019-05-05T23:50:17.481Z,2.54
2019-05-05T23:55:24.190Z,2.54
